Time;durP1;ratioP1;P1;durP2;ratioP2;P2;SDS_P1;SDS_P2;PMS_P1;PMS_P2;Temp;Humidity;BMP_temperature;BMP_pressure;BME280_temperature;BME280_humidity;BME280_pressure;Samples;Min_cycle;Max_cycle;Signal;HPM_P1;HPM_P2
2022/07/14 00:03:20;;;;;;;3.55;1.13;;;;;;;25.67;41.61;100365.91;10346938;28;20183;-70
2022/07/14 00:08:22;;;;;;;1.75;1.52;;;;;;;25.67;41.64;100364.03;10345642;28;20465;-71
2022/07/14 00:13:23;;;;;;;1.73;1.50;;;;;;;25.70;41.77;100366.31;10345410;28;20125;-70
2022/07/14 00:18:24;;;;;;;2.80;1.30;;;;;;;25.68;42.27;100367.59;10345921;28;20053;-70
2022/07/14 00:23:26;;;;;;;1.73;1.23;;;;;;;25.66;41.50;100366.97;10343551;28;20750;-70
2022/07/14 00:28:27;;;;;;;2.03;1.50;;;;;;;25.63;42.08;100376.41;10344616;28;20482;-71
2022/07/14 00:33:30;;;;;;;3.50;1.30;;;;;;;25.58;42.31;100373.50;10349159;28;20663;-70
2022/07/14 00:38:32;;;;;;;1.98;1.35;;;;;;;25.50;42.23;100365.59;10344529;28;20070;-71
2022/07/14 00:43:33;;;;;;;1.63;1.15;;;;;;;25.53;42.57;100367.88;10352655;28;20148;-71
2022/07/14 00:48:35;;;;;;;3.42;1.60;;;;;;;25.49;42.31;100353.88;10352553;28;20063;-70
2022/07/14 00:53:36;;;;;;;1.92;1.30;;;;;;;25.44;42.11;100352.88;10353256;28;20673;-69
2022/07/14 00:58:37;;;;;;;1.73;1.30;;;;;;;25.39;42.42;100342.63;10355027;28;20085;-70
2022/07/14 01:03:39;;;;;;;2.97;1.40;;;;;;;25.43;42.50;100345.72;10351210;28;20081;-70
2022/07/14 01:08:40;;;;;;;1.45;1.10;;;;;;;25.39;42.63;100351.63;10351212;28;20224;-71
2022/07/14 01:13:45;;;;;;;2.42;1.20;;;;;;;25.35;42.53;100339.47;10352244;28;20111;-70
2022/07/14 01:18:46;;;;;;;3.20;1.30;;;;;;;25.30;42.94;100341.22;10354355;28;20041;-70
2022/07/14 01:23:47;;;;;;;2.10;1.90;;;;;;;25.28;42.66;100346.00;10350154;28;20471;-70
2022/07/14 01:28:49;;;;;;;2.35;1.33;;;;;;;25.20;42.93;100366.16;10350688;28;20063;-70
2022/07/14 01:33:51;;;;;;;2.47;1.67;;;;;;;25.13;43.43;100347.16;10347413;28;20584;-70
2022/07/14 01:38:52;;;;;;;1.60;1.50;;;;;;;25.14;43.65;100332.44;10347833;28;20046;-69
2022/07/14 01:43:54;;;;;;;1.55;1.17;;;;;;;25.05;42.94;100340.03;10357868;28;20051;-71
2022/07/14 01:48:55;;;;;;;2.20;1.02;;;;;;;24.99;43.02;100338.19;10350152;28;20055;-70
2022/07/14 01:53:57;;;;;;;1.42;1.10;;;;;;;24.86;43.38;100332.78;10351443;28;20296;-70
2022/07/14 01:59:00;;;;;;;1.02;0.93;;;;;;;24.82;43.19;100323.41;10349166;28;20148;-69
2022/07/14 02:04:02;;;;;;;1.50;1.38;;;;;;;24.86;43.38;100313.72;10346331;28;21519;-70
2022/07/14 02:09:04;;;;;;;2.63;1.30;;;;;;;24.79;43.44;100315.69;10347912;28;20361;-71
2022/07/14 02:14:05;;;;;;;2.05;1.27;;;;;;;24.66;43.72;100306.50;10350840;28;20054;-70
2022/07/14 02:19:07;;;;;;;1.00;0.70;;;;;;;24.62;43.67;100309.84;10349923;28;20240;-70
2022/07/14 02:24:09;;;;;;;1.88;0.90;;;;;;;24.56;43.79;100327.88;10348296;28;20133;-71
2022/07/14 02:29:11;;;;;;;2.13;1.40;;;;;;;24.49;43.72;100338.75;10350934;28;21005;-70
2022/07/14 02:34:12;;;;;;;4.95;1.10;;;;;;;24.47;43.90;100326.41;10347463;28;20125;-70
2022/07/14 02:39:14;;;;;;;1.35;1.05;;;;;;;24.43;44.01;100308.84;10347751;28;20149;-70
2022/07/14 02:44:16;;;;;;;1.50;0.82;;;;;;;24.31;43.93;100273.31;10351146;28;20055;-70
2022/07/14 02:49:17;;;;;;;0.95;0.80;;;;;;;24.38;43.70;100316.81;10343969;28;20136;-71
2022/07/14 02:54:19;;;;;;;1.42;0.90;;;;;;;24.21;44.11;100328.13;10351144;28;20078;-70
2022/07/14 02:59:20;;;;;;;2.25;1.05;;;;;;;24.32;44.06;100311.19;10346674;28;20220;-68
2022/07/14 03:04:22;;;;;;;2.13;0.85;;;;;;;24.32;44.19;100324.78;10344726;28;20076;-68
2022/07/14 03:09:25;;;;;;;1.20;0.90;;;;;;;24.27;44.33;100321.84;10346215;28;20053;-69
2022/07/14 03:14:27;;;;;;;1.27;1.00;;;;;;;24.30;44.50;100312.44;10351345;28;20961;-69
2022/07/14 03:19:28;;;;;;;2.55;1.02;;;;;;;24.27;44.87;100294.66;10346909;28;20478;-71
2022/07/14 03:24:30;;;;;;;1.75;1.13;;;;;;;24.24;44.59;100297.78;10345992;28;20149;-68
2022/07/14 03:29:32;;;;;;;3.00;1.20;;;;;;;24.23;44.86;100296.16;10346420;28;20060;-68
2022/07/14 03:34:33;;;;;;;1.85;1.17;;;;;;;24.19;45.00;100319.38;10345537;28;20072;-67
2022/07/14 03:39:36;;;;;;;1.90;1.40;;;;;;;24.20;45.23;100312.03;10348624;28;20605;-68
2022/07/14 03:44:37;;;;;;;1.58;1.20;;;;;;;24.24;45.22;100329.59;10349349;28;20115;-69
2022/07/14 03:49:38;;;;;;;1.73;1.30;;;;;;;24.20;45.30;100344.66;10346668;28;20158;-68
2022/07/14 03:54:44;;;;;;;1.92;1.20;;;;;;;24.16;45.51;100322.50;10346278;28;20104;-70
2022/07/14 03:59:46;;;;;;;2.10;1.10;;;;;;;24.14;45.54;100325.44;10342917;28;20056;-68
2022/07/14 04:04:48;;;;;;;5.77;2.10;;;;;;;24.05;45.82;100313.13;10347358;28;20091;-69
2022/07/14 04:09:50;;;;;;;1.77;1.27;;;;;;;24.04;46.06;100302.44;10342958;28;20172;-69
2022/07/14 04:14:51;;;;;;;1.77;1.10;;;;;;;24.08;45.23;100284.66;10347106;28;20057;-70
2022/07/14 04:19:52;;;;;;;2.65;1.20;;;;;;;24.05;46.34;100296.81;10369471;28;20136;-68
2022/07/14 04:24:54;;;;;;;1.65;1.10;;;;;;;24.04;46.52;100294.28;10345541;28;20148;-68
2022/07/14 04:29:55;;;;;;;2.55;1.48;;;;;;;24.07;46.21;100307.47;10332027;28;20160;-68
2022/07/14 04:34:57;;;;;;;1.40;1.00;;;;;;;23.98;45.89;100290.53;10331531;28;20140;-68
2022/07/14 04:39:58;;;;;;;2.25;1.20;;;;;;;24.03;45.53;100290.72;10339626;28;20141;-68
2022/07/14 04:44:59;;;;;;;1.42;1.20;;;;;;;24.02;46.06;100285.50;10340398;28;20053;-68
2022/07/14 04:55:21;;;;;;;2.22;1.00;;;;;;;24.02;45.75;100288.22;10321964;28;20057;-70
2022/07/14 05:00:23;;;;;;;1.73;1.17;;;;;;;23.99;46.24;100290.31;10323436;28;20187;-71
2022/07/14 05:05:24;;;;;;;0.93;0.90;;;;;;;23.98;46.16;100279.66;10321695;28;20057;-70
2022/07/14 05:10:29;;;;;;;2.50;1.10;;;;;;;24.03;46.10;100300.78;10326509;28;20140;-70
2022/07/14 05:15:31;;;;;;;2.85;1.75;;;;;;;24.03;45.87;100315.19;10339491;28;20871;-69
2022/07/14 05:20:32;;;;;;;2.22;1.20;;;;;;;24.10;46.40;100317.91;10344536;28;20191;-71
2022/07/14 05:25:34;;;;;;;3.67;1.30;;;;;;;24.09;46.17;100324.41;10350783;28;20479;-71
2022/07/14 05:30:35;;;;;;;2.35;1.55;;;;;;;24.06;46.73;100312.06;10345175;28;20179;-69
2022/07/14 05:35:37;;;;;;;5.10;1.98;;;;;;;24.10;46.99;100312.47;10336735;28;20077;-70
2022/07/14 05:40:38;;;;;;;1.38;1.05;;;;;;;24.10;46.62;100317.91;10323315;28;20153;-70
2022/07/14 05:45:40;;;;;;;2.50;1.20;;;;;;;24.16;46.72;100317.06;10334777;28;20054;-72
2022/07/14 05:50:41;;;;;;;2.65;1.40;;;;;;;24.13;46.31;100322.94;10334199;28;20054;-73
2022/07/14 05:55:43;;;;;;;2.50;1.38;;;;;;;24.12;47.78;100315.81;10353169;28;20621;-73
2022/07/14 06:00:44;;;;;;;2.22;1.67;;;;;;;24.21;46.68;100303.66;10358648;28;20059;-72
2022/07/14 06:05:46;;;;;;;2.97;1.33;;;;;;;24.18;46.90;100309.53;10361704;28;20571;-74
2022/07/14 06:10:48;;;;;;;2.03;1.30;;;;;;;24.15;47.37;100320.81;10360480;28;20056;-72
2022/07/14 06:15:49;;;;;;;2.38;1.33;;;;;;;24.15;47.59;100309.94;10359564;28;20457;-74
2022/07/14 06:20:51;;;;;;;1.90;1.50;;;;;;;24.23;48.00;100301.59;10331802;28;20053;-70
2022/07/14 06:25:52;;;;;;;2.40;1.85;;;;;;;24.31;48.00;100300.53;10355447;28;20172;-73
2022/07/14 06:30:54;;;;;;;2.55;1.67;;;;;;;24.43;47.76;100303.41;10357341;28;20163;-73
2022/07/14 06:35:55;;;;;;;3.22;1.73;;;;;;;24.58;47.83;100298.56;10343975;28;20772;-72
2022/07/14 06:41:03;;;;;;;3.50;1.85;;;;;;;24.77;47.73;100295.97;10341756;28;20700;-73
2022/07/14 06:46:07;;;;;;;2.92;1.90;;;;;;;24.99;47.40;100289.16;10341717;28;20060;-73
2022/07/14 06:51:08;;;;;;;1.85;1.63;;;;;;;24.93;47.40;100272.88;10340767;28;20050;-72
2022/07/14 06:56:11;;;;;;;3.72;1.80;;;;;;;25.13;47.17;100284.50;10333711;28;20068;-73
2022/07/14 07:01:12;;;;;;;2.83;1.50;;;;;;;25.14;47.21;100290.78;10350548;28;20126;-71
2022/07/14 07:11:35;;;;;;;4.18;1.73;;;;;;;25.30;46.84;100284.84;10344259;28;20684;-73
2022/07/14 07:16:36;;;;;;;5.63;1.67;;;;;;;25.43;46.68;100296.69;10332119;28;20053;-69
2022/07/14 07:21:38;;;;;;;4.55;2.03;;;;;;;25.50;46.99;100292.03;10334668;28;21443;-71
2022/07/14 07:26:40;;;;;;;4.35;2.10;;;;;;;25.50;46.73;100290.13;10330648;28;20053;-71
2022/07/14 07:31:42;;;;;;;;;;;;;;;25.48;47.09;100289.53;10348172;28;20111;-71
2022/07/14 07:36:43;;;;;;;2.53;1.88;;;;;;;25.47;47.24;100289.75;10345278;28;20539;-72
2022/07/14 07:42:05;;;;;;;3.58;1.75;;;;;;;25.49;47.28;100290.34;10346020;28;20736;-70
2022/07/14 07:47:06;;;;;;;4.53;2.22;;;;;;;25.45;47.02;100289.16;10344530;28;20045;-71
2022/07/14 07:52:08;;;;;;;2.40;2.00;;;;;;;25.29;48.16;100283.13;10340246;28;20636;-68
2022/07/14 07:57:09;;;;;;;5.03;2.35;;;;;;;25.53;47.44;100277.97;10350402;28;20521;-67
2022/07/14 08:02:10;;;;;;;6.18;2.03;;;;;;;25.66;47.24;100279.75;10351122;28;20195;-67
2022/07/14 08:07:12;;;;;;;3.85;1.63;;;;;;;25.94;46.60;100276.53;10343976;28;20056;-68
2022/07/14 08:12:14;;;;;;;3.60;2.00;;;;;;;26.10;46.39;100273.25;10338418;28;20060;-66
2022/07/14 08:17:21;;;;;;;6.00;2.22;;;;;;;26.22;45.68;100276.09;10348711;28;20867;-67
2022/07/14 08:22:27;;;;;;;2.95;1.90;;;;;;;26.26;45.31;100271.03;10350117;28;20515;-73
2022/07/14 08:27:29;;;;;;;2.78;1.90;;;;;;;26.37;45.78;100278.44;10348116;28;20133;-75
2022/07/14 08:32:39;;;;;;;4.78;2.53;;;;;;;26.46;45.89;100281.69;10347571;28;20079;-72
2022/07/14 08:37:42;;;;;;;3.67;2.17;;;;;;;26.53;45.93;100266.09;10337753;28;20065;-75
2022/07/14 08:42:46;;;;;;;4.77;2.20;;;;;;;26.61;45.72;100256.75;10337025;28;20046;-77
2022/07/14 08:47:48;;;;;;;2.72;1.58;;;;;;;26.56;45.49;100265.63;10337377;28;20296;-77
2022/07/14 08:52:50;;;;;;;3.67;2.10;;;;;;;26.99;44.75;100264.69;10323197;28;20053;-74
2022/07/14 08:57:51;;;;;;;2.33;2.03;;;;;;;27.23;44.34;100264.72;10332145;28;20091;-73
2022/07/14 09:02:54;;;;;;;2.63;2.20;;;;;;;27.40;44.73;100259.47;10336849;28;20174;-74
2022/07/14 09:08:17;;;;;;;3.35;1.80;;;;;;;27.63;43.82;100264.13;10350161;28;20113;-73
2022/07/14 09:13:22;;;;;;;4.15;2.25;;;;;;;28.02;42.94;100250.00;10355309;28;20630;-77
2022/07/14 09:18:28;;;;;;;4.40;2.42;;;;;;;28.26;42.15;100244.53;10355714;28;20127;-74
2022/07/14 09:23:32;;;;;;;2.90;1.83;;;;;;;28.02;42.50;100239.06;10355830;28;20049;-74
2022/07/14 09:28:38;;;;;;;2.58;1.88;;;;;;;28.24;42.30;100238.44;10349569;28;20107;-71
2022/07/14 09:33:42;;;;;;;4.82;2.25;;;;;;;28.49;41.05;100232.66;10351156;28;20118;-75
2022/07/14 09:38:47;;;;;;;2.78;2.42;;;;;;;28.65;40.78;100223.72;10354447;28;20405;-73
2022/07/14 09:44:12;;;;;;;5.63;2.50;;;;;;;28.40;41.25;100215.78;10346249;28;20731;-72
2022/07/14 09:49:16;;;;;;;4.00;2.03;;;;;;;28.77;40.78;100212.72;10345354;28;20068;-70
2022/07/14 09:54:48;;;;;;;2.65;2.45;;;;;;;28.96;39.45;100209.75;10354836;28;20088;-70
2022/07/14 09:59:55;;;;;;;3.33;2.45;;;;;;;28.60;40.82;100206.34;10338201;28;20073;-70
2022/07/14 10:05:01;;;;;;;7.13;2.30;;;;;;;29.05;40.32;100203.63;10338630;28;20112;-71
2022/07/14 10:10:04;;;;;;;4.03;2.63;;;;;;;29.24;38.98;100204.25;10342647;28;21025;-70
2022/07/14 10:15:08;;;;;;;2.42;2.22;;;;;;;29.27;39.64;100203.78;10352224;28;20061;-69
2022/07/14 10:20:12;;;;;;;4.20;2.13;;;;;;;29.75;38.89;100185.00;10357046;28;20056;-68
2022/07/14 10:25:14;;;;;;;2.72;2.15;;;;;;;30.21;37.65;100181.25;10353063;28;20108;-68
2022/07/14 10:30:15;;;;;;;3.17;2.38;;;;;;;29.54;37.93;100183.88;10365160;28;20585;-70
2022/07/14 10:35:39;;;;;;;5.13;2.65;;;;;;;29.57;38.38;100175.16;10347696;28;20045;-70
2022/07/14 10:40:49;;;;;;;6.30;2.50;;;;;;;29.75;38.04;100165.81;10321837;28;20058;-69
2022/07/14 10:45:53;;;;;;;2.90;2.60;;;;;;;30.10;38.53;100150.09;10349088;28;20657;-69
2022/07/14 10:51:13;;;;;;;3.50;2.38;;;;;;;30.74;36.66;100151.38;10336027;28;20057;-69
2022/07/14 10:56:27;;;;;;;2.65;2.13;;;;;;;31.23;36.50;100147.69;10338443;28;20131;-70
2022/07/14 11:01:28;;;;;;;3.28;2.40;;;;;;;31.48;35.76;100139.63;10340609;28;20125;-69
2022/07/14 11:06:30;;;;;;;6.28;2.17;;;;;;;31.63;35.40;100141.69;10345422;28;20061;-70
2022/07/14 11:11:32;;;;;;;7.05;2.42;;;;;;;32.11;34.69;100151.81;10347883;28;20061;-73
2022/07/14 11:16:47;;;;;;;2.47;2.13;;;;;;;32.29;34.13;100140.31;10348972;28;20195;-67
2022/07/14 11:22:11;;;;;;;8.32;2.42;;;;;;;32.28;34.69;100152.44;10338527;28;20056;-70
2022/07/14 11:27:34;;;;;;;6.05;2.60;;;;;;;31.68;34.87;100149.94;10352559;28;20038;-76
2022/07/14 11:32:36;;;;;;;2.85;2.22;;;;;;;31.41;35.22;100138.19;10344354;28;20057;-73
2022/07/14 11:37:58;;;;;;;3.60;1.92;;;;;;;31.61;35.29;100143.84;10339879;28;20049;-73
2022/07/14 11:43:28;;;;;;;3.40;2.13;;;;;;;31.45;35.89;100161.31;10349262;28;20152;-73
2022/07/14 11:48:32;;;;;;;2.35;2.13;;;;;;;31.55;35.79;100142.97;10334876;28;20187;-73
2022/07/14 11:53:34;;;;;;;4.10;2.60;;;;;;;31.49;35.18;100146.75;10335530;28;20133;-74
2022/07/14 11:58:39;;;;;;;5.90;2.45;;;;;;;30.73;35.81;100138.72;10332351;28;20865;-73
2022/07/14 12:03:40;;;;;;;3.63;2.58;;;;;;;30.82;36.03;100129.75;10340638;28;20244;-72
2022/07/14 12:08:43;;;;;;;4.63;2.25;;;;;;;31.45;35.33;100125.56;10343670;28;20054;-72
2022/07/14 12:14:01;;;;;;;3.72;2.05;;;;;;;32.10;33.91;100123.44;10340603;28;20168;-74
2022/07/14 12:19:03;;;;;;;3.92;2.13;;;;;;;32.74;32.92;100130.53;10320481;28;20673;-74
2022/07/14 12:24:06;;;;;;;;;;;;;;;33.20;30.98;100132.47;10336589;28;20093;-74
2022/07/14 12:29:08;;;;;;;4.25;2.30;;;;;;;32.66;31.43;100136.56;10355576;28;20148;-74
2022/07/14 12:34:10;;;;;;;3.33;1.73;;;;;;;32.33;32.49;100126.84;10350564;28;20068;-72
2022/07/14 12:39:12;;;;;;;3.05;2.15;;;;;;;31.99;31.73;100136.34;10344476;28;20525;-72
2022/07/14 12:44:14;;;;;;;3.72;1.88;;;;;;;31.80;32.00;100135.13;10360162;28;20242;-72
2022/07/14 12:49:15;;;;;;;;;;;;;;;31.37;31.17;100140.66;10344753;28;20133;-72
2022/07/14 12:54:19;;;;;;;4.47;1.42;;;;;;;31.17;30.58;100133.09;10362610;28;19939;-73
2022/07/14 12:59:42;;;;;;;3.00;1.55;;;;;;;31.49;29.01;100138.50;10371308;28;22227;-71
2022/07/14 13:04:49;;;;;;;2.38;1.83;;;;;;;31.11;29.28;100139.66;10365365;28;20057;-73
2022/07/14 13:10:05;;;;;;;2.30;1.23;;;;;;;30.71;28.30;100138.16;10374491;28;20151;-72
2022/07/14 13:15:13;;;;;;;3.65;1.50;;;;;;;30.06;28.09;100151.72;10344615;28;20049;-72
2022/07/14 13:20:46;;;;;;;3.28;1.20;;;;;;;29.90;27.74;100158.91;10344626;28;20050;-71
2022/07/14 13:25:47;;;;;;;1.75;1.08;;;;;;;29.53;28.17;100153.97;10345246;28;21095;-72
2022/07/14 13:30:49;;;;;;;2.20;1.50;;;;;;;29.34;27.67;100161.66;10347479;28;20213;-73
2022/07/14 13:35:56;;;;;;;9.13;1.90;;;;;;;28.99;28.50;100171.75;10351825;28;20167;-72
2022/07/14 13:40:58;;;;;;;2.38;1.13;;;;;;;28.86;29.42;100175.63;10348786;28;20087;-74
2022/07/14 13:45:59;;;;;;;2.10;1.47;;;;;;;28.96;28.82;100176.88;10339766;28;20054;-73
2022/07/14 13:56:21;;;;;;;2.65;1.33;;;;;;;28.68;29.43;100181.31;10360789;28;20061;-72
2022/07/14 14:01:25;;;;;;;2.57;1.17;;;;;;;28.71;30.02;100197.25;10345182;28;20659;-75
2022/07/14 14:06:27;;;;;;;3.65;1.67;;;;;;;28.52;29.99;100194.66;10352293;28;20077;-74
2022/07/14 14:11:29;;;;;;;2.10;1.47;;;;;;;27.86;31.43;100200.41;10354947;28;20113;-73
2022/07/14 14:16:30;;;;;;;1.70;1.40;;;;;;;27.83;32.11;100192.69;10352527;28;20065;-74
2022/07/14 14:21:32;;;;;;;4.43;1.90;;;;;;;27.87;32.83;100201.25;10353789;28;20288;-74
2022/07/14 14:26:34;;;;;;;3.42;1.83;;;;;;;27.70;32.94;100190.19;10352675;28;20121;-73
2022/07/14 14:31:37;;;;;;;2.65;1.80;;;;;;;28.11;33.61;100182.91;10333872;28;20120;-72
2022/07/14 14:36:40;;;;;;;3.55;2.00;;;;;;;28.32;33.56;100189.63;10353386;28;20552;-74
2022/07/14 14:41:41;;;;;;;;;;;;;;;28.61;32.80;100184.19;10365807;28;20261;-74
2022/07/14 14:46:42;;;;;;;3.42;1.60;;;;;;;28.43;33.15;100182.44;10358975;28;19933;-76
2022/07/14 14:51:44;;;;;;;3.47;1.63;;;;;;;28.52;33.08;100180.97;10350088;28;20053;-76
2022/07/14 14:56:45;;;;;;;4.20;1.80;;;;;;;28.37;32.96;100180.69;10346229;28;20359;-75
2022/07/14 15:01:48;;;;;;;3.03;1.90;;;;;;;28.18;33.20;100182.78;10351384;28;20546;-77
2022/07/14 15:06:49;;;;;;;;;;;;;;;27.98;33.08;100167.63;10367933;28;20095;-76
2022/07/14 15:11:58;;;;;;;3.63;1.88;;;;;;;28.16;32.95;100174.78;10409325;27;20757;-62
2022/07/14 15:16:59;;;;;;;2.60;1.43;;;;;;;28.03;32.62;100158.69;10406229;27;20076;-61
2022/07/14 15:22:01;;;;;;;2.57;1.30;;;;;;;28.15;31.47;100162.22;10427801;27;22052;-61
2022/07/14 15:27:02;;;;;;;3.10;2.35;;;;;;;28.10;31.16;100153.88;10429655;27;20069;-62
2022/07/14 15:32:14;;;;;;;4.38;1.88;;;;;;;28.19;30.21;100157.06;10421765;27;20052;-61
2022/07/14 15:37:15;;;;;;;4.70;1.95;;;;;;;28.14;29.79;100149.59;10435687;27;20075;-63
2022/07/14 15:42:17;;;;;;;3.83;1.60;;;;;;;28.30;30.08;100147.16;10430281;27;20047;-62
2022/07/14 15:47:18;;;;;;;3.28;1.70;;;;;;;28.12;29.58;100139.97;10420850;27;20120;-64
2022/07/14 15:52:20;;;;;;;5.30;1.70;;;;;;;28.16;29.11;100147.44;10421388;27;20214;-63
2022/07/14 15:57:53;;;;;;;2.53;1.67;;;;;;;28.09;29.45;100134.97;10396087;27;20052;-64
2022/07/14 16:03:08;;;;;;;3.97;2.20;;;;;;;28.08;28.93;100133.34;10286028;28;20143;-66
2022/07/14 16:08:10;;;;;;;3.45;1.60;;;;;;;27.87;29.88;100128.22;10422336;27;20121;-63
2022/07/14 16:13:11;;;;;;;4.25;1.58;;;;;;;27.80;29.97;100129.44;10431022;27;20060;-64
2022/07/14 16:18:13;;;;;;;2.67;1.48;;;;;;;27.68;29.57;100137.66;10434274;22;20678;-63
2022/07/14 16:23:15;;;;;;;2.03;1.33;;;;;;;27.54;30.27;100128.88;10369612;28;20081;-64
2022/07/14 16:28:18;;;;;;;3.90;1.40;;;;;;;27.29;29.94;100129.06;10367133;28;20220;-63
2022/07/14 16:33:20;;;;;;;3.35;1.55;;;;;;;27.26;30.54;100124.09;10368321;28;20052;-62
2022/07/14 16:38:22;;;;;;;4.43;1.77;;;;;;;27.23;29.85;100132.75;10374180;28;20573;-60
2022/07/14 16:43:23;;;;;;;3.38;1.60;;;;;;;27.15;30.31;100142.97;10370064;28;20079;-65
2022/07/14 16:48:25;;;;;;;5.43;1.45;;;;;;;27.04;29.88;100142.94;10349563;28;20042;-64
2022/07/14 16:53:26;;;;;;;5.43;1.92;;;;;;;26.82;29.96;100148.97;10356981;28;20128;-63
2022/07/14 16:58:29;;;;;;;3.45;1.48;;;;;;;26.93;30.66;100144.59;10369479;28;20358;-63
2022/07/14 17:03:32;;;;;;;3.45;1.40;;;;;;;26.85;30.05;100143.03;10365156;28;20057;-63
2022/07/14 17:08:33;;;;;;;;;;;;;;;26.61;30.18;100142.09;10338042;28;20060;-63
2022/07/14 17:13:35;;;;;;;4.35;1.88;;;;;;;26.31;30.40;100153.84;10375405;28;20587;-63
2022/07/14 17:18:37;;;;;;;3.47;1.70;;;;;;;26.32;30.86;100155.53;10372071;28;20154;-64
2022/07/14 17:23:39;;;;;;;3.43;1.43;;;;;;;26.27;30.91;100149.91;10369218;28;20506;-63
2022/07/14 17:28:41;;;;;;;4.50;1.47;;;;;;;26.22;30.65;100155.22;10367660;28;21397;-64
2022/07/14 17:33:43;;;;;;;4.15;1.70;;;;;;;26.25;31.00;100163.78;10356926;28;20056;-64
2022/07/14 17:38:45;;;;;;;5.70;1.50;;;;;;;26.29;30.97;100164.16;10366751;28;20290;-65
2022/07/14 17:43:46;;;;;;;2.80;1.55;;;;;;;26.15;30.91;100165.38;10366423;28;20135;-64
2022/07/14 17:48:47;;;;;;;4.32;1.95;;;;;;;26.05;31.44;100166.75;10372330;28;20182;-64
2022/07/14 17:53:51;;;;;;;5.07;3.38;;;;;;;26.05;31.32;100176.84;10372236;28;20049;-64
2022/07/14 17:59:13;;;;;;;3.88;1.45;;;;;;;25.81;31.15;100189.47;10370366;28;20554;-64
2022/07/14 18:04:16;;;;;;;4.53;1.67;;;;;;;25.75;30.92;100200.19;10364389;28;20088;-65
2022/07/14 18:09:27;;;;;;;3.05;1.63;;;;;;;25.69;31.07;100211.16;10368020;28;20460;-63
2022/07/14 18:14:28;;;;;;;3.85;1.50;;;;;;;25.47;30.70;100214.28;10362032;28;20127;-65
2022/07/14 18:19:30;;;;;;;3.53;1.63;;;;;;;25.33;30.87;100220.91;10359526;28;20148;-65
2022/07/14 18:24:32;;;;;;;2.30;1.40;;;;;;;25.16;31.04;100223.28;10362439;28;20045;-69
2022/07/14 18:29:33;;;;;;;2.75;1.30;;;;;;;25.00;31.69;100230.94;10365076;28;20104;-63
2022/07/14 18:34:38;;;;;;;2.67;1.38;;;;;;;24.89;32.48;100239.81;10362539;28;20155;-63
2022/07/14 18:39:40;;;;;;;2.88;1.25;;;;;;;24.95;32.29;100243.53;10360475;28;20107;-62
2022/07/14 18:50:02;;;;;;;2.63;1.25;;;;;;;24.94;32.34;100263.69;10367494;28;20154;-64
2022/07/14 18:55:11;;;;;;;3.92;1.60;;;;;;;24.82;32.73;100275.25;10353783;28;20049;-63
2022/07/14 19:00:14;;;;;;;3.80;1.02;;;;;;;24.79;33.23;100278.41;10371087;28;20057;-64
2022/07/14 19:05:15;;;;;;;;;;;;;;;24.68;32.73;100290.81;10375884;28;20163;-64
2022/07/14 19:10:17;;;;;;;4.28;1.70;;;;;;;24.34;33.70;100278.31;10373500;28;21215;-64
2022/07/14 19:15:18;;;;;;;3.70;1.45;;;;;;;24.43;33.61;100300.69;10368196;28;20079;-63
2022/07/14 19:20:21;;;;;;;3.30;1.60;;;;;;;24.42;33.62;100315.34;10365287;28;20056;-63
2022/07/14 19:25:25;;;;;;;5.20;1.60;;;;;;;24.29;33.55;100318.91;10375079;28;20114;-63
2022/07/14 19:30:27;;;;;;;3.75;2.03;;;;;;;24.21;34.48;100319.97;10366298;28;20091;-63
2022/07/14 19:35:29;;;;;;;3.53;1.27;;;;;;;24.13;34.22;100329.19;10366164;28;20785;-63
2022/07/14 19:40:31;;;;;;;3.27;1.23;;;;;;;24.06;33.97;100332.97;10365107;28;20064;-65
2022/07/14 19:45:33;;;;;;;2.20;1.47;;;;;;;23.97;35.33;100346.75;10361342;28;20083;-64
2022/07/14 19:50:35;;;;;;;2.10;0.90;;;;;;;23.82;34.47;100359.69;10367314;28;20970;-64
2022/07/14 19:55:36;;;;;;;5.00;1.30;;;;;;;23.80;34.64;100361.81;10367139;28;20117;-64
2022/07/14 20:00:38;;;;;;;4.20;0.90;;;;;;;23.75;34.70;100362.44;10374150;28;20483;-64
2022/07/14 20:06:00;;;;;;;3.25;1.08;;;;;;;23.57;34.68;100370.31;10374559;28;20044;-64
2022/07/14 20:11:01;;;;;;;5.00;1.00;;;;;;;23.54;34.71;100371.59;10369539;28;20526;-64
2022/07/14 20:16:03;;;;;;;1.77;0.85;;;;;;;23.55;34.58;100381.41;10374371;28;20060;-64
2022/07/14 20:21:05;;;;;;;4.30;1.20;;;;;;;23.53;34.29;100394.38;10363193;28;20149;-63
2022/07/14 20:26:06;;;;;;;3.92;1.85;;;;;;;23.53;35.64;100405.22;10364540;28;21004;-56
2022/07/14 20:36:36;;;;;;;2.63;1.48;;;;;;;23.44;35.32;100414.63;10370689;28;20049;-58
2022/07/14 20:41:38;;;;;;;5.20;1.08;;;;;;;23.33;34.62;100415.19;10373538;28;20945;-58
2022/07/14 20:51:59;;;;;;;2.75;1.20;;;;;;;23.25;35.73;100403.47;10376794;28;20051;-57
2022/07/14 20:57:11;;;;;;;3.30;1.17;;;;;;;23.30;35.62;100405.59;10321963;28;20049;-56
2022/07/14 21:02:41;;;;;;;3.30;1.00;;;;;;;23.18;35.60;100402.63;10149810;28;20050;-56
2022/07/14 21:07:43;;;;;;;1.83;0.80;;;;;;;23.11;35.85;100409.91;10376284;28;20056;-56
2022/07/14 21:12:44;;;;;;;2.63;1.00;;;;;;;22.98;35.00;100407.09;10384989;28;20152;-56
2022/07/14 21:17:46;;;;;;;4.10;1.25;;;;;;;22.95;35.19;100427.31;10382845;28;20148;-56
2022/07/14 21:22:47;;;;;;;2.72;0.95;;;;;;;22.86;35.15;100428.53;10382996;28;20143;-55
2022/07/14 21:27:49;;;;;;;3.97;1.02;;;;;;;22.81;35.65;100426.41;10383560;28;20055;-55
2022/07/14 21:32:50;;;;;;;1.52;0.70;;;;;;;22.74;36.33;100423.69;10385705;28;20212;-56
2022/07/14 21:37:53;;;;;;;2.20;0.93;;;;;;;22.60;35.02;100433.59;10366998;28;20064;-55
2022/07/14 21:42:55;;;;;;;1.80;0.85;;;;;;;22.48;36.14;100435.16;10385428;28;20119;-56
2022/07/14 21:47:56;;;;;;;3.08;0.85;;;;;;;22.41;35.77;100445.13;10381084;28;20056;-56
2022/07/14 21:52:59;;;;;;;2.45;0.82;;;;;;;22.45;36.05;100441.00;10378440;28;20081;-56
2022/07/14 21:58:00;;;;;;;3.80;0.80;;;;;;;22.47;35.75;100457.06;10361630;28;20048;-57
2022/07/14 22:03:03;;;;;;;4.40;0.88;;;;;;;22.23;35.92;100443.72;10378916;28;20191;-56
2022/07/14 22:08:07;;;;;;;1.73;1.00;;;;;;;22.29;35.97;100454.81;10377283;28;20049;-55
2022/07/14 22:13:08;;;;;;;1.90;0.90;;;;;;;22.25;35.34;100449.78;10379083;28;20320;-55
2022/07/14 22:18:10;;;;;;;1.98;1.00;;;;;;;22.23;35.30;100459.13;10375778;28;20132;-55
2022/07/14 22:23:29;;;;;;;5.50;0.88;;;;;;;22.18;35.60;100458.88;10374843;28;20041;-55
2022/07/14 22:28:31;;;;;;;2.17;1.05;;;;;;;22.21;36.27;100461.22;10354101;28;20045;-55
2022/07/14 22:33:33;;;;;;;2.47;1.05;;;;;;;22.19;35.61;100464.13;10370086;28;20069;-56
2022/07/14 22:38:34;;;;;;;2.50;1.38;;;;;;;22.05;36.29;100465.88;10373456;28;20589;-56
2022/07/14 22:43:36;;;;;;;3.40;1.00;;;;;;;22.07;36.35;100468.38;10373487;28;20173;-56
2022/07/14 22:48:37;;;;;;;3.00;1.20;;;;;;;22.03;36.22;100461.66;10374543;28;20057;-56
2022/07/14 22:53:38;;;;;;;2.38;0.73;;;;;;;21.89;36.24;100453.41;10372939;28;20141;-56
2022/07/14 22:58:40;;;;;;;5.45;1.10;;;;;;;21.82;36.94;100468.75;10376814;28;20044;-55
2022/07/14 23:03:42;;;;;;;1.50;0.60;;;;;;;21.80;36.92;100470.81;10374113;28;20061;-57
2022/07/14 23:08:44;;;;;;;2.20;0.80;;;;;;;21.75;36.46;100473.25;10371196;28;20103;-55
2022/07/14 23:13:45;;;;;;;2.78;0.90;;;;;;;21.59;36.67;100468.91;10372069;28;20134;-55
2022/07/14 23:18:47;;;;;;;2.08;0.88;;;;;;;21.43;37.07;100479.94;10371764;28;20129;-54
2022/07/14 23:23:48;;;;;;;1.23;0.77;;;;;;;21.33;37.05;100481.09;10373212;28;20050;-54
2022/07/14 23:28:50;;;;;;;1.90;0.70;;;;;;;21.27;38.38;100480.97;10384014;28;21582;-55
2022/07/14 23:33:52;;;;;;;3.35;1.02;;;;;;;21.19;37.59;100480.03;10383173;28;20103;-55
2022/07/14 23:38:53;;;;;;;3.25;0.77;;;;;;;21.24;37.94;100484.06;10369301;28;20140;-56
2022/07/14 23:43:55;;;;;;;1.52;0.70;;;;;;;21.22;37.69;100499.66;10382142;28;20072;-54
2022/07/14 23:48:56;;;;;;;3.30;0.73;;;;;;;21.18;37.89;100494.63;10381235;28;20734;-61
2022/07/14 23:53:58;;;;;;;2.83;1.08;;;;;;;21.19;38.01;100500.88;10378671;28;20037;-55